Brangus — WDB4516 — position and weather

sailwx.info

Track history (hours):
 
Tides and Currents Weather Stations Pressure Air Temp Water Temp Dewpoint Dewpoint Depression Visibility Wind Speed Wind Dir Waves Ship Positions

Brangus

Owner: Great Lakes Dredge & Dock Company, Oak Brook, IL. More information available from US FCC via Universal Licensing System and Coast Guard Vessel Documentation Center.

Last reported at 2016-Jan-17 02:33 UTC. Time now 2016-Feb-13 23:49 UTC.
Position N 38°57' W 074°54'.
Warning: this ship's position is 27 days out of date.

; draft 3 m.

MMSI: 366899270.

Date/timePositionNaut miles runAvg speedWind from/ knotsBaromVisibWave heightAir tempDewpointWater temp
2016-Jan-17 02:33N 38°57' W 074°54'6 5.5
2016-Jan-17 01:29N 39°01' W 074°60'52 6.2
2016-Jan-16 17:11N 39°49' W 075°24'3 4.3
2016-Jan-16 16:27N 39°51' W 075°21'1 0.5
2016-Jan-16 14:31N 39°50' W 075°21'0 0.0
2016-Jan-16 13:29N 39°50' W 075°21'0 0.0
2016-Jan-16 12:29N 39°50' W 075°21'1 1.4
2016-Jan-16 11:33N 39°50' W 075°23'0 0.0
2016-Jan-16 10:33N 39°50' W 075°23'0 0.0
2016-Jan-16 09:33N 39°50' W 075°23'1 0.5
2016-Jan-16 08:32N 39°50' W 075°22'1 0.6
2016-Jan-16 07:33N 39°50' W 075°23'0 0.0
2016-Jan-16 06:33N 39°50' W 075°23'0 0.0
2016-Jan-16 05:33N 39°50' W 075°23'0 0.0
2016-Jan-16 04:33N 39°50' W 075°23'0 0.0
2016-Jan-16 03:33N 39°50' W 075°23'0 0.0
2016-Jan-16 02:33N 39°50' W 075°23'0 0.0
2016-Jan-16 01:33N 39°50' W 075°23'0 0.0
2016-Jan-16 00:33N 39°50' W 075°23'0 0.0
2016-Jan-15 23:33N 39°50' W 075°23'0 0.0
2016-Jan-15 22:33N 39°50' W 075°23'0 0.0
2016-Jan-15 21:32N 39°50' W 075°23'0 0.0
2016-Jan-15 20:33N 39°50' W 075°23'0 0.0
2016-Jan-15 19:33N 39°50' W 075°23'0 0.0
2016-Jan-15 18:33N 39°50' W 075°23'0 0.0
2016-Jan-15 17:33N 39°50' W 075°23'0 0.0
2016-Jan-15 16:33N 39°50' W 075°23'0 0.0
2016-Jan-15 15:33N 39°50' W 075°23'0 0.0
2016-Jan-15 14:32N 39°50' W 075°23'0 0.0
2016-Jan-15 13:33N 39°50' W 075°23'2 1.2
2016-Jan-15 11:33N 39°51' W 075°20'0 0.1
2016-Jan-15 10:31N 39°51' W 075°21'0 0.1
2016-Jan-15 09:33N 39°51' W 075°21'2 2.2
2016-Jan-15 08:33N 39°50' W 075°23'0 0.0
2016-Jan-15 07:33N 39°50' W 075°23'0 0.0
2016-Jan-15 06:33N 39°50' W 075°23'0 0.0
2016-Jan-15 05:33N 39°50' W 075°23'0 0.0
2016-Jan-15 04:33N 39°50' W 075°23'0 0.0
2016-Jan-15 03:33N 39°50' W 075°23'0 0.0
2016-Jan-15 02:33N 39°50' W 075°23'0 0.0
2016-Jan-15 01:33N 39°50' W 075°23'0 0.0
2016-Jan-15 00:33N 39°50' W 075°23'0 0.0
2016-Jan-14 23:33N 39°50' W 075°23'0 0.0
2016-Jan-14 22:33N 39°50' W 075°23'0 0.0
2016-Jan-14 21:33N 39°50' W 075°23'0 0.0
2016-Jan-14 20:33N 39°50' W 075°23'0 0.0
2016-Jan-14 19:33N 39°50' W 075°23'0 0.0
2016-Jan-14 18:33N 39°50' W 075°23'0 0.0
2016-Jan-14 17:33N 39°50' W 075°23'0 0.0
2016-Jan-14 16:33N 39°50' W 075°23'0 0.0
2016-Jan-14 15:33N 39°50' W 075°23'0 0.0
2016-Jan-14 14:33N 39°50' W 075°23'3 2.6
2016-Jan-14 13:33N 39°51' W 075°20'0 0.0
2016-Jan-14 12:33N 39°51' W 075°20'0 0.0
2016-Jan-14 11:33N 39°51' W 075°20'0 0.0
2016-Jan-14 10:33N 39°51' W 075°20'0 0.3
2016-Jan-14 09:33N 39°51' W 075°20'0 0.1
2016-Jan-14 08:33N 39°51' W 075°20'2 2.5
2016-Jan-14 07:33N 39°50' W 075°23'0 0.0
2016-Jan-14 06:33N 39°50' W 075°23'0 0.0
2016-Jan-14 05:33N 39°50' W 075°23'0 0.0
2016-Jan-14 04:33N 39°50' W 075°23'0 0.0
2016-Jan-14 03:33N 39°50' W 075°23'0 0.0
2016-Jan-14 02:33N 39°50' W 075°23'0 0.0
2016-Jan-14 01:33N 39°50' W 075°23'0 0.0
2016-Jan-14 00:33N 39°50' W 075°23'0 0.0
2016-Jan-13 23:33N 39°50' W 075°23'0 0.0
2016-Jan-13 22:33N 39°50' W 075°23'0 0.0
2016-Jan-13 21:33N 39°50' W 075°23'0 0.0
2016-Jan-13 20:33N 39°50' W 075°23'0 0.0
2016-Jan-13 19:33N 39°50' W 075°23'0 0.0
2016-Jan-13 18:33N 39°50' W 075°23'0 0.0
2016-Jan-13 17:33N 39°50' W 075°23'3 2.7
2016-Jan-13 16:33N 39°51' W 075°20'1 1.4
2016-Jan-13 15:33N 39°50' W 075°22'4 3.9
2016-Jan-13 14:33N 39°48' W 075°26'1 1.2
2016-Jan-13 13:33N 39°47' W 075°27'0 0.0
2016-Jan-13 12:33N 39°47' W 075°27'4 3.8
2016-Jan-13 11:33N 39°50' W 075°23'0 0.0
2016-Jan-13 10:33N 39°50' W 075°23'0 0.0
2016-Jan-13 09:33N 39°50' W 075°23'0 0.0
2016-Jan-13 08:33N 39°50' W 075°23'0 0.0
2016-Jan-13 07:33N 39°50' W 075°23'0 0.0
2016-Jan-13 06:33N 39°50' W 075°23'0 0.0
2016-Jan-13 05:34N 39°50' W 075°23'0 0.0
2016-Jan-13 04:33N 39°50' W 075°23'0 0.0
2016-Jan-13 03:33N 39°50' W 075°23'0 0.0
2016-Jan-13 02:34N 39°50' W 075°23'0 0.0
2016-Jan-13 01:33N 39°50' W 075°23'0 0.0
2016-Jan-13 00:33N 39°50' W 075°23'0 0.0
2016-Jan-12 23:33N 39°50' W 075°23'0 0.0
2016-Jan-12 22:33N 39°50' W 075°23'0 0.0
2016-Jan-12 21:33N 39°50' W 075°23'0 0.0
2016-Jan-12 20:33N 39°50' W 075°23'0 0.0
2016-Jan-12 19:33N 39°50' W 075°23'0 0.0
2016-Jan-12 18:33N 39°50' W 075°23'4 3.8
2016-Jan-12 17:33N 39°47' W 075°27'0 0.0
2016-Jan-12 16:33N 39°47' W 075°27'2 2.1
2016-Jan-12 15:33N 39°49' W 075°25'2 1.7
2016-Jan-12 14:33N 39°50' W 075°23'0 0.0
2016-Jan-12 13:33N 39°50' W 075°23'0 0.0
2016-Jan-12 12:33N 39°50' W 075°23'0 0.0
2016-Jan-12 11:33N 39°50' W 075°23'0 0.0
2016-Jan-12 10:33N 39°50' W 075°23'0 0.0
2016-Jan-12 09:33N 39°50' W 075°23'0 0.0
2016-Jan-12 08:33N 39°50' W 075°23'0 0.0
2016-Jan-12 07:33N 39°50' W 075°23'0 0.0
2016-Jan-12 06:33N 39°50' W 075°23'1 0.9
2016-Jan-12 05:33N 39°49' W 075°24'3 3.0
2016-Jan-12 04:33N 39°47' W 075°27'0 0.0
2016-Jan-12 03:33N 39°47' W 075°27'3 3.3
2016-Jan-12 02:33N 39°49' W 075°23'1 0.6
2016-Jan-12 01:33N 39°50' W 075°23'0 0.0
2016-Jan-12 00:33N 39°50' W 075°23'0 0.0
2016-Jan-11 23:33N 39°50' W 075°23'0 0.0
2016-Jan-11 22:33N 39°50' W 075°23'0 0.0
2016-Jan-11 21:33N 39°50' W 075°23'0 0.0
2016-Jan-11 20:33N 39°50' W 075°23'4 3.8
2016-Jan-11 19:33N 39°51' W 075°18'4 4.4
2016-Jan-11 18:33N 39°52' W 075°13'0 0.4
2016-Jan-11 17:33N 39°53' W 075°12'3 2.7
2016-Jan-11 16:33N 39°51' W 075°15'4 4.5
2016-Jan-11 15:33N 39°50' W 075°21'1 0.7
2016-Jan-11 14:33N 39°50' W 075°22'1 0.9
2016-Jan-11 13:33N 39°50' W 075°23'0 0.0
2016-Jan-11 12:33N 39°50' W 075°23'0 0.1
2016-Jan-11 11:33N 39°50' W 075°23'1 0.8
2016-Jan-11 10:33N 39°49' W 075°22'0 0.3
2016-Jan-11 09:33N 39°50' W 075°22'0 0.2
2016-Jan-11 08:33N 39°50' W 075°22'0 0.2
2016-Jan-11 07:33N 39°49' W 075°22'1 0.8
2016-Jan-11 06:33N 39°50' W 075°23'0 0.0
2016-Jan-11 05:33N 39°50' W 075°23'3 3.0
2016-Jan-11 04:33N 39°51' W 075°19'6 6.3
2016-Jan-11 03:33N 39°53' W 075°12'2 1.8
2016-Jan-11 02:33N 39°52' W 075°13'6 6.3
2016-Jan-11 01:33N 39°50' W 075°21'1 1.4
2016-Jan-11 00:34N 39°50' W 075°23'0 0.0
2016-Jan-10 23:33N 39°50' W 075°23'0 0.0
2016-Jan-10 22:33N 39°50' W 075°23'0 0.0
2016-Jan-10 21:33N 39°50' W 075°23'0 0.0
2016-Jan-10 20:33N 39°50' W 075°23'0 0.0
2016-Jan-10 19:33N 39°50' W 075°23'1 0.9
2016-Jan-10 18:33N 39°49' W 075°24'1 1.2
2016-Jan-10 17:34N 39°48' W 075°25'0 0.0
2016-Jan-10 16:33N 39°48' W 075°25'0 0.0
2016-Jan-10 15:33N 39°48' W 075°25'0 0.0
2016-Jan-10 14:33N 39°48' W 075°25'0 0.1
2016-Jan-10 13:33N 39°48' W 075°25'3 2.9
2016-Jan-10 12:33N 39°50' W 075°21'1 1.0
2016-Jan-10 11:33N 39°50' W 075°23'0 0.1
2016-Jan-10 10:33N 39°50' W 075°23'1 0.7
2016-Jan-10 09:33N 39°50' W 075°22'0 0.5
2016-Jan-10 08:33N 39°50' W 075°22'0 0.0
2016-Jan-10 07:33N 39°50' W 075°22'0 0.0
2016-Jan-10 06:33N 39°50' W 075°22'0 0.0
2016-Jan-10 05:33N 39°50' W 075°22'0 0.1
2016-Jan-10 04:33N 39°50' W 075°22'0 0.0
2016-Jan-10 03:33N 39°50' W 075°22'0 0.0
2016-Jan-10 02:33N 39°50' W 075°22'0 0.0
2016-Jan-10 01:33N 39°50' W 075°22'0 0.0
2016-Jan-10 00:33N 39°50' W 075°22'0 0.0
2016-Jan-09 23:33N 39°50' W 075°22'1 0.8
2016-Jan-09 22:33N 39°51' W 075°21'0 0.0
2016-Jan-09 21:33N 39°51' W 075°21'2 1.8
2016-Jan-09 20:33N 39°50' W 075°23'0 0.0
2016-Jan-09 19:33N 39°50' W 075°23'0 0.0
2016-Jan-09 18:33N 39°50' W 075°23'0 0.0
2016-Jan-09 17:33N 39°50' W 075°23'0 0.0
2016-Jan-09 16:33N 39°50' W 075°23'0 0.0
2016-Jan-09 15:33N 39°50' W 075°23'1 1.1
2016-Jan-09 14:33N 39°50' W 075°22'0 0.0
2016-Jan-09 13:33N 39°50' W 075°22'0 0.1
2016-Jan-09 12:33N 39°50' W 075°22'1 1.1
2016-Jan-09 11:33N 39°50' W 075°23'1 1.1
2016-Jan-09 10:33N 39°50' W 075°22'0 0.0
2016-Jan-09 09:33N 39°50' W 075°22'0 0.0
2016-Jan-09 08:33N 39°50' W 075°22'0 0.0
2016-Jan-09 07:33N 39°50' W 075°22'0 0.0
2016-Jan-09 06:33N 39°50' W 075°22'0 0.0
2016-Jan-09 05:33N 39°50' W 075°22'0 0.0
2016-Jan-09 04:33N 39°50' W 075°22'0 0.0
2016-Jan-09 03:33N 39°50' W 075°22'0 0.0
2016-Jan-09 02:33N 39°50' W 075°22'0 0.0
2016-Jan-09 01:33N 39°50' W 075°22'0 0.0
2016-Jan-09 00:33N 39°50' W 075°22'0 0.1
2016-Jan-08 23:33N 39°50' W 075°22'0 0.0
2016-Jan-08 22:33N 39°50' W 075°22'0 0.0
2016-Jan-08 21:33N 39°50' W 075°22'1 0.8
2016-Jan-08 20:33N 39°50' W 075°23'1 0.9
2016-Jan-08 19:33N 39°50' W 075°22'0 0.0
2016-Jan-08 18:33N 39°50' W 075°22'0 0.0
2016-Jan-08 17:34N 39°50' W 075°22'0 0.0
2016-Jan-08 16:32N 39°50' W 075°22'0 0.0
2016-Jan-08 15:33N 39°50' W 075°22'0 0.0
2016-Jan-08 14:33N 39°50' W 075°22'0 0.0
2016-Jan-08 13:33N 39°50' W 075°22'0 0.0
2016-Jan-08 12:33N 39°50' W 075°22'1 1.2
2016-Jan-08 11:33N 39°50' W 075°23'1 1.2
2016-Jan-08 10:33N 39°50' W 075°22'0 0.0
2016-Jan-08 09:33N 39°50' W 075°22'0 0.0
2016-Jan-08 08:33N 39°50' W 075°22'0 0.0
2016-Jan-08 07:34N 39°50' W 075°22'0 0.0
2016-Jan-08 06:33N 39°50' W 075°22'0 0.0
2016-Jan-08 05:33N 39°50' W 075°22'0 0.0
2016-Jan-08 04:33N 39°50' W 075°22'0 0.0
2016-Jan-08 03:33N 39°50' W 075°22'0 0.0
2016-Jan-08 02:33N 39°50' W 075°22'0 0.0
2016-Jan-08 01:33N 39°50' W 075°22'0 0.0
2016-Jan-08 00:33N 39°50' W 075°22'0 0.0
2016-Jan-07 23:33N 39°50' W 075°22'0 0.0
2016-Jan-07 22:33N 39°50' W 075°22'0 0.0
2016-Jan-07 21:33N 39°50' W 075°22'0 0.0
2016-Jan-07 20:33N 39°50' W 075°22'0 0.0
2016-Jan-07 19:33N 39°50' W 075°22'0 0.0
2016-Jan-07 18:33N 39°50' W 075°22'1 0.6
2016-Jan-07 17:33N 39°49' W 075°22'0 0.2
2016-Jan-07 16:33N 39°50' W 075°22'0 0.0
2016-Jan-07 15:33N 39°50' W 075°22'0 0.4
2016-Jan-07 14:33N 39°50' W 075°22'0 0.2
2016-Jan-07 13:33N 39°50' W 075°21'0 0.1
2016-Jan-07 12:33N 39°50' W 075°22'1 1.2
2016-Jan-07 11:33N 39°50' W 075°23'0 0.0
2016-Jan-07 10:33N 39°50' W 075°23'0 0.0
2016-Jan-07 09:33N 39°50' W 075°23'0 0.0
2016-Jan-07 08:33N 39°50' W 075°23'0 0.0
2016-Jan-07 07:33N 39°50' W 075°23'0 0.0
2016-Jan-07 06:33N 39°50' W 075°23'0 0.0
2016-Jan-07 05:33N 39°50' W 075°23'0 0.0
2016-Jan-07 04:33N 39°50' W 075°23'0 0.0
2016-Jan-07 03:33N 39°50' W 075°23'0 0.0
2016-Jan-07 02:33N 39°50' W 075°23'  
Track history (hours):
 
Tides and Currents Weather Stations Pressure Air Temp Water Temp Dewpoint Dewpoint Depression Visibility Wind Speed Wind Dir Waves Ship Positions

Brangus

Owner: Great Lakes Dredge & Dock Company, Oak Brook, IL. More information available from US FCC via Universal Licensing System and Coast Guard Vessel Documentation Center.

Last reported at 2016-Jan-17 02:33 UTC. Time now 2016-Feb-13 23:49 UTC.
Position N 38°57' W 074°54'.
Warning: this ship's position is 27 days out of date.

; draft 3 m.

MMSI: 366899270.

Date/timePositionNaut miles runAvg speedWind from/ knotsBaromVisibWave heightAir tempDewpointWater temp
2016-Jan-17 02:33N 38°57' W 074°54'6 5.5
2016-Jan-17 01:29N 39°01' W 074°60'52 6.2
2016-Jan-16 17:11N 39°49' W 075°24'3 4.3
2016-Jan-16 16:27N 39°51' W 075°21'1 0.5
2016-Jan-16 14:31N 39°50' W 075°21'0 0.0
2016-Jan-16 13:29N 39°50' W 075°21'0 0.0
2016-Jan-16 12:29N 39°50' W 075°21'1 1.4
2016-Jan-16 11:33N 39°50' W 075°23'0 0.0
2016-Jan-16 10:33N 39°50' W 075°23'0 0.0
2016-Jan-16 09:33N 39°50' W 075°23'1 0.5
2016-Jan-16 08:32N 39°50' W 075°22'1 0.6
2016-Jan-16 07:33N 39°50' W 075°23'0 0.0
2016-Jan-16 06:33N 39°50' W 075°23'0 0.0
2016-Jan-16 05:33N 39°50' W 075°23'0 0.0
2016-Jan-16 04:33N 39°50' W 075°23'0 0.0
2016-Jan-16 03:33N 39°50' W 075°23'0 0.0
2016-Jan-16 02:33N 39°50' W 075°23'0 0.0
2016-Jan-16 01:33N 39°50' W 075°23'0 0.0
2016-Jan-16 00:33N 39°50' W 075°23'0 0.0
2016-Jan-15 23:33N 39°50' W 075°23'0 0.0
2016-Jan-15 22:33N 39°50' W 075°23'0 0.0
2016-Jan-15 21:32N 39°50' W 075°23'0 0.0
2016-Jan-15 20:33N 39°50' W 075°23'0 0.0
2016-Jan-15 19:33N 39°50' W 075°23'0 0.0
2016-Jan-15 18:33N 39°50' W 075°23'0 0.0
2016-Jan-15 17:33N 39°50' W 075°23'0 0.0
2016-Jan-15 16:33N 39°50' W 075°23'0 0.0
2016-Jan-15 15:33N 39°50' W 075°23'0 0.0
2016-Jan-15 14:32N 39°50' W 075°23'0 0.0
2016-Jan-15 13:33N 39°50' W 075°23'2 1.2
2016-Jan-15 11:33N 39°51' W 075°20'0 0.1
2016-Jan-15 10:31N 39°51' W 075°21'0 0.1
2016-Jan-15 09:33N 39°51' W 075°21'2 2.2
2016-Jan-15 08:33N 39°50' W 075°23'0 0.0
2016-Jan-15 07:33N 39°50' W 075°23'0 0.0
2016-Jan-15 06:33N 39°50' W 075°23'0 0.0
2016-Jan-15 05:33N 39°50' W 075°23'0 0.0
2016-Jan-15 04:33N 39°50' W 075°23'0 0.0
2016-Jan-15 03:33N 39°50' W 075°23'0 0.0
2016-Jan-15 02:33N 39°50' W 075°23'0 0.0
2016-Jan-15 01:33N 39°50' W 075°23'0 0.0
2016-Jan-15 00:33N 39°50' W 075°23'0 0.0
2016-Jan-14 23:33N 39°50' W 075°23'0 0.0
2016-Jan-14 22:33N 39°50' W 075°23'0 0.0
2016-Jan-14 21:33N 39°50' W 075°23'0 0.0
2016-Jan-14 20:33N 39°50' W 075°23'0 0.0
2016-Jan-14 19:33N 39°50' W 075°23'0 0.0
2016-Jan-14 18:33N 39°50' W 075°23'0 0.0
2016-Jan-14 17:33N 39°50' W 075°23'0 0.0
2016-Jan-14 16:33N 39°50' W 075°23'0 0.0
2016-Jan-14 15:33N 39°50' W 075°23'0 0.0
2016-Jan-14 14:33N 39°50' W 075°23'3 2.6
2016-Jan-14 13:33N 39°51' W 075°20'0 0.0
2016-Jan-14 12:33N 39°51' W 075°20'0 0.0
2016-Jan-14 11:33N 39°51' W 075°20'0 0.0
2016-Jan-14 10:33N 39°51' W 075°20'0 0.3
2016-Jan-14 09:33N 39°51' W 075°20'0 0.1
2016-Jan-14 08:33N 39°51' W 075°20'2 2.5
2016-Jan-14 07:33N 39°50' W 075°23'0 0.0
2016-Jan-14 06:33N 39°50' W 075°23'0 0.0
2016-Jan-14 05:33N 39°50' W 075°23'0 0.0
2016-Jan-14 04:33N 39°50' W 075°23'0 0.0
2016-Jan-14 03:33N 39°50' W 075°23'0 0.0
2016-Jan-14 02:33N 39°50' W 075°23'0 0.0
2016-Jan-14 01:33N 39°50' W 075°23'0 0.0
2016-Jan-14 00:33N 39°50' W 075°23'0 0.0
2016-Jan-13 23:33N 39°50' W 075°23'0 0.0
2016-Jan-13 22:33N 39°50' W 075°23'0 0.0
2016-Jan-13 21:33N 39°50' W 075°23'0 0.0
2016-Jan-13 20:33N 39°50' W 075°23'0 0.0
2016-Jan-13 19:33N 39°50' W 075°23'0 0.0
2016-Jan-13 18:33N 39°50' W 075°23'0 0.0
2016-Jan-13 17:33N 39°50' W 075°23'3 2.7
2016-Jan-13 16:33N 39°51' W 075°20'1 1.4
2016-Jan-13 15:33N 39°50' W 075°22'4 3.9
2016-Jan-13 14:33N 39°48' W 075°26'1 1.2
2016-Jan-13 13:33N 39°47' W 075°27'0 0.0
2016-Jan-13 12:33N 39°47' W 075°27'4 3.8
2016-Jan-13 11:33N 39°50' W 075°23'0 0.0
2016-Jan-13 10:33N 39°50' W 075°23'0 0.0
2016-Jan-13 09:33N 39°50' W 075°23'0 0.0
2016-Jan-13 08:33N 39°50' W 075°23'0 0.0
2016-Jan-13 07:33N 39°50' W 075°23'0 0.0
2016-Jan-13 06:33N 39°50' W 075°23'0 0.0
2016-Jan-13 05:34N 39°50' W 075°23'0 0.0
2016-Jan-13 04:33N 39°50' W 075°23'0 0.0
2016-Jan-13 03:33N 39°50' W 075°23'0 0.0
2016-Jan-13 02:34N 39°50' W 075°23'0 0.0
2016-Jan-13 01:33N 39°50' W 075°23'0 0.0
2016-Jan-13 00:33N 39°50' W 075°23'0 0.0
2016-Jan-12 23:33N 39°50' W 075°23'0 0.0
2016-Jan-12 22:33N 39°50' W 075°23'0 0.0
2016-Jan-12 21:33N 39°50' W 075°23'0 0.0
2016-Jan-12 20:33N 39°50' W 075°23'0 0.0
2016-Jan-12 19:33N 39°50' W 075°23'0 0.0
2016-Jan-12 18:33N 39°50' W 075°23'4 3.8
2016-Jan-12 17:33N 39°47' W 075°27'0 0.0
2016-Jan-12 16:33N 39°47' W 075°27'2 2.1
2016-Jan-12 15:33N 39°49' W 075°25'2 1.7
2016-Jan-12 14:33N 39°50' W 075°23'0 0.0
2016-Jan-12 13:33N 39°50' W 075°23'0 0.0
2016-Jan-12 12:33N 39°50' W 075°23'0 0.0
2016-Jan-12 11:33N 39°50' W 075°23'0 0.0
2016-Jan-12 10:33N 39°50' W 075°23'0 0.0
2016-Jan-12 09:33N 39°50' W 075°23'0 0.0
2016-Jan-12 08:33N 39°50' W 075°23'0 0.0
2016-Jan-12 07:33N 39°50' W 075°23'0 0.0
2016-Jan-12 06:33N 39°50' W 075°23'1 0.9
2016-Jan-12 05:33N 39°49' W 075°24'3 3.0
2016-Jan-12 04:33N 39°47' W 075°27'0 0.0
2016-Jan-12 03:33N 39°47' W 075°27'3 3.3
2016-Jan-12 02:33N 39°49' W 075°23'1 0.6
2016-Jan-12 01:33N 39°50' W 075°23'0 0.0
2016-Jan-12 00:33N 39°50' W 075°23'0 0.0
2016-Jan-11 23:33N 39°50' W 075°23'0 0.0
2016-Jan-11 22:33N 39°50' W 075°23'0 0.0
2016-Jan-11 21:33N 39°50' W 075°23'0 0.0
2016-Jan-11 20:33N 39°50' W 075°23'4 3.8
2016-Jan-11 19:33N 39°51' W 075°18'4 4.4
2016-Jan-11 18:33N 39°52' W 075°13'0 0.4
2016-Jan-11 17:33N 39°53' W 075°12'3 2.7
2016-Jan-11 16:33N 39°51' W 075°15'4 4.5
2016-Jan-11 15:33N 39°50' W 075°21'1 0.7
2016-Jan-11 14:33N 39°50' W 075°22'1 0.9
2016-Jan-11 13:33N 39°50' W 075°23'0 0.0
2016-Jan-11 12:33N 39°50' W 075°23'0 0.1
2016-Jan-11 11:33N 39°50' W 075°23'1 0.8
2016-Jan-11 10:33N 39°49' W 075°22'0 0.3
2016-Jan-11 09:33N 39°50' W 075°22'0 0.2
2016-Jan-11 08:33N 39°50' W 075°22'0 0.2
2016-Jan-11 07:33N 39°49' W 075°22'1 0.8
2016-Jan-11 06:33N 39°50' W 075°23'0 0.0
2016-Jan-11 05:33N 39°50' W 075°23'3 3.0
2016-Jan-11 04:33N 39°51' W 075°19'6 6.3
2016-Jan-11 03:33N 39°53' W 075°12'2 1.8
2016-Jan-11 02:33N 39°52' W 075°13'6 6.3
2016-Jan-11 01:33N 39°50' W 075°21'1 1.4
2016-Jan-11 00:34N 39°50' W 075°23'0 0.0
2016-Jan-10 23:33N 39°50' W 075°23'0 0.0
2016-Jan-10 22:33N 39°50' W 075°23'0 0.0
2016-Jan-10 21:33N 39°50' W 075°23'0 0.0
2016-Jan-10 20:33N 39°50' W 075°23'0 0.0
2016-Jan-10 19:33N 39°50' W 075°23'1 0.9
2016-Jan-10 18:33N 39°49' W 075°24'1 1.2
2016-Jan-10 17:34N 39°48' W 075°25'0 0.0
2016-Jan-10 16:33N 39°48' W 075°25'0 0.0
2016-Jan-10 15:33N 39°48' W 075°25'0 0.0
2016-Jan-10 14:33N 39°48' W 075°25'0 0.1
2016-Jan-10 13:33N 39°48' W 075°25'3 2.9
2016-Jan-10 12:33N 39°50' W 075°21'1 1.0
2016-Jan-10 11:33N 39°50' W 075°23'0 0.1
2016-Jan-10 10:33N 39°50' W 075°23'1 0.7
2016-Jan-10 09:33N 39°50' W 075°22'0 0.5
2016-Jan-10 08:33N 39°50' W 075°22'0 0.0
2016-Jan-10 07:33N 39°50' W 075°22'0 0.0
2016-Jan-10 06:33N 39°50' W 075°22'0 0.0
2016-Jan-10 05:33N 39°50' W 075°22'0 0.1
2016-Jan-10 04:33N 39°50' W 075°22'0 0.0
2016-Jan-10 03:33N 39°50' W 075°22'0 0.0
2016-Jan-10 02:33N 39°50' W 075°22'0 0.0
2016-Jan-10 01:33N 39°50' W 075°22'0 0.0
2016-Jan-10 00:33N 39°50' W 075°22'0 0.0
2016-Jan-09 23:33N 39°50' W 075°22'1 0.8
2016-Jan-09 22:33N 39°51' W 075°21'0 0.0
2016-Jan-09 21:33N 39°51' W 075°21'2 1.8
2016-Jan-09 20:33N 39°50' W 075°23'0 0.0
2016-Jan-09 19:33N 39°50' W 075°23'0 0.0
2016-Jan-09 18:33N 39°50' W 075°23'0 0.0
2016-Jan-09 17:33N 39°50' W 075°23'0 0.0
2016-Jan-09 16:33N 39°50' W 075°23'0 0.0
2016-Jan-09 15:33N 39°50' W 075°23'1 1.1
2016-Jan-09 14:33N 39°50' W 075°22'0 0.0
2016-Jan-09 13:33N 39°50' W 075°22'0 0.1
2016-Jan-09 12:33N 39°50' W 075°22'1 1.1
2016-Jan-09 11:33N 39°50' W 075°23'1 1.1
2016-Jan-09 10:33N 39°50' W 075°22'0 0.0
2016-Jan-09 09:33N 39°50' W 075°22'0 0.0
2016-Jan-09 08:33N 39°50' W 075°22'0 0.0
2016-Jan-09 07:33N 39°50' W 075°22'0 0.0
2016-Jan-09 06:33N 39°50' W 075°22'0 0.0
2016-Jan-09 05:33N 39°50' W 075°22'0 0.0
2016-Jan-09 04:33N 39°50' W 075°22'0 0.0
2016-Jan-09 03:33N 39°50' W 075°22'0 0.0
2016-Jan-09 02:33N 39°50' W 075°22'0 0.0
2016-Jan-09 01:33N 39°50' W 075°22'0 0.0
2016-Jan-09 00:33N 39°50' W 075°22'0 0.1
2016-Jan-08 23:33N 39°50' W 075°22'0 0.0
2016-Jan-08 22:33N 39°50' W 075°22'0 0.0
2016-Jan-08 21:33N 39°50' W 075°22'1 0.8
2016-Jan-08 20:33N 39°50' W 075°23'1 0.9
2016-Jan-08 19:33N 39°50' W 075°22'0 0.0
2016-Jan-08 18:33N 39°50' W 075°22'0 0.0
2016-Jan-08 17:34N 39°50' W 075°22'0 0.0
2016-Jan-08 16:32N 39°50' W 075°22'0 0.0
2016-Jan-08 15:33N 39°50' W 075°22'0 0.0
2016-Jan-08 14:33N 39°50' W 075°22'0 0.0
2016-Jan-08 13:33N 39°50' W 075°22'0 0.0
2016-Jan-08 12:33N 39°50' W 075°22'1 1.2
2016-Jan-08 11:33N 39°50' W 075°23'1 1.2
2016-Jan-08 10:33N 39°50' W 075°22'0 0.0
2016-Jan-08 09:33N 39°50' W 075°22'0 0.0
2016-Jan-08 08:33N 39°50' W 075°22'0 0.0
2016-Jan-08 07:34N 39°50' W 075°22'0 0.0
2016-Jan-08 06:33N 39°50' W 075°22'0 0.0
2016-Jan-08 05:33N 39°50' W 075°22'0 0.0
2016-Jan-08 04:33N 39°50' W 075°22'0 0.0
2016-Jan-08 03:33N 39°50' W 075°22'0 0.0
2016-Jan-08 02:33N 39°50' W 075°22'0 0.0
2016-Jan-08 01:33N 39°50' W 075°22'0 0.0
2016-Jan-08 00:33N 39°50' W 075°22'0 0.0
2016-Jan-07 23:33N 39°50' W 075°22'0 0.0
2016-Jan-07 22:33N 39°50' W 075°22'0 0.0
2016-Jan-07 21:33N 39°50' W 075°22'0 0.0
2016-Jan-07 20:33N 39°50' W 075°22'0 0.0
2016-Jan-07 19:33N 39°50' W 075°22'0 0.0
2016-Jan-07 18:33N 39°50' W 075°22'1 0.6
2016-Jan-07 17:33N 39°49' W 075°22'0 0.2
2016-Jan-07 16:33N 39°50' W 075°22'0 0.0
2016-Jan-07 15:33N 39°50' W 075°22'0 0.4
2016-Jan-07 14:33N 39°50' W 075°22'0 0.2
2016-Jan-07 13:33N 39°50' W 075°21'0 0.1
2016-Jan-07 12:33N 39°50' W 075°22'1 1.2
2016-Jan-07 11:33N 39°50' W 075°23'0 0.0
2016-Jan-07 10:33N 39°50' W 075°23'0 0.0
2016-Jan-07 09:33N 39°50' W 075°23'0 0.0
2016-Jan-07 08:33N 39°50' W 075°23'0 0.0
2016-Jan-07 07:33N 39°50' W 075°23'0 0.0
2016-Jan-07 06:33N 39°50' W 075°23'0 0.0
2016-Jan-07 05:33N 39°50' W 075°23'0 0.0
2016-Jan-07 04:33N 39°50' W 075°23'0 0.0
2016-Jan-07 03:33N 39°50' W 075°23'0 0.0
2016-Jan-07 02:33N 39°50' W 075°23'  

Dump ship's entire track history